Terminal Aerodrome Forecast
Issued by NWS Grand Junction, CO

Current Version | Previous Version | Text Only | Print | Product List | Glossary On
Versions: 1 2 3 4 5 6 7 8 9 10 11 12 13 14 15 16 17 18 19 20 21 22 23 24 25 26 27 28 29
000
FTUS45 KGJT 220631 AAB
TAFGJT
TAF AMD
KGJT 220631Z 2207/2306 12010KT P6SM VCTS SCT060CB OVC100
      TEMPO 2207/2208 VRB20G30KT -TSRA
     FM220800 12005KT P6SM SCT100
     FM221900 VRB03KT P6SM SCT100
     FM222100 28007KT P6SM SCT100=

USA.gov is the U.S. government's official web portal to all federal, state and local government web resources and services.